Time,TemperatureF,DewpointF,PressureIn,WindDirection,WindDirectionDegrees,WindSpeedMPH,WindSpeedGustMPH,Humidity,HourlyPrecipIn,Conditions,Clouds,dailyrainin,SoftwareType,DateUTC
2013-01-14 00:00:00,30.2,28.4,30.08,WNW,302,4.0,13.0,93,0.00,,,0.00,Wunderground v.1.15,2013-01-14 05:00:00,
2013-01-14 00:01:00,30.2,28.4,30.08,WNW,303,10.0,11.0,93,0.00,,,0.00,Wunderground v.1.15,2013-01-14 05:01:00,
2013-01-14 00:03:00,30.2,28.4,30.08,WNW,302,4.0,11.0,93,0.00,,,0.00,Wunderground v.1.15,2013-01-14 05:03:00,
2013-01-14 00:08:00,30.2,28.4,30.09,WNW,302,6.0,11.0,93,0.00,,,0.00,Wunderground v.1.15,2013-01-14 05:08:00,
2013-01-14 00:13:00,29.9,27.6,30.09,WNW,303,14.0,16.0,91,0.00,,,0.00,Wunderground v.1.15,2013-01-14 05:13:00,
2013-01-14 00:18:00,29.4,26.3,30.09,WNW,302,4.0,20.0,88,0.00,,,0.00,Wunderground v.1.15,2013-01-14 05:18:00,
2013-01-14 00:23:00,29.1,26.0,30.10,WNW,302,3.0,15.0,88,0.00,,,0.00,Wunderground v.1.15,2013-01-14 05:23:00,
2013-01-14 00:28:00,29.0,25.6,30.10,WNW,302,6.0,21.0,87,0.00,,,0.00,Wunderground v.1.15,2013-01-14 05:28:00,
2013-01-14 00:33:00,28.8,25.4,30.10,WNW,302,10.0,15.0,87,0.00,,,0.00,Wunderground v.1.15,2013-01-14 05:33:00,
2013-01-14 00:38:00,28.8,25.4,30.09,WNW,302,4.0,16.0,87,0.00,,,0.00,Wunderground v.1.15,2013-01-14 05:38:00,
2013-01-14 00:43:00,28.7,25.3,30.10,WNW,303,2.0,18.0,87,0.00,,,0.00,Wunderground v.1.15,2013-01-14 05:43:00,
2013-01-14 00:48:00,28.6,25.5,30.10,WNW,302,11.0,18.0,88,0.00,,,0.00,Wunderground v.1.15,2013-01-14 05:48:00,
2013-01-14 00:53:00,28.7,25.6,30.10,WNW,302,12.0,12.0,88,0.00,,,0.00,Wunderground v.1.15,2013-01-14 05:53:00,
2013-01-14 00:58:00,28.7,25.3,30.10,WNW,302,6.0,18.0,87,0.00,,,0.00,Wunderground v.1.15,2013-01-14 05:58:00,
2013-01-14 01:03:00,28.6,25.2,30.11,WNW,302,7.0,21.0,87,0.00,,,0.00,Wunderground v.1.15,2013-01-14 06:03:00,
2013-01-14 01:08:00,28.5,24.8,30.11,WNW,302,6.0,21.0,86,0.00,,,0.00,Wunderground v.1.15,2013-01-14 06:08:00,
2013-01-14 01:13:00,28.5,25.1,30.12,WNW,302,9.0,16.0,87,0.00,,,0.00,Wunderground v.1.15,2013-01-14 06:13:00,
2013-01-14 01:18:00,28.4,24.7,30.12,WNW,302,6.0,16.0,86,0.00,,,0.00,Wunderground v.1.15,2013-01-14 06:18:00,
2013-01-14 01:23:00,28.3,24.6,30.12,WNW,303,4.0,13.0,86,0.00,,,0.00,Wunderground v.1.15,2013-01-14 06:23:00,
2013-01-14 01:28:00,28.1,24.5,30.13,WNW,302,5.0,15.0,86,0.00,,,0.00,Wunderground v.1.15,2013-01-14 06:28:00,
2013-01-14 01:33:00,27.9,24.0,30.13,WNW,303,15.0,17.0,85,0.00,,,0.00,Wunderground v.1.15,2013-01-14 06:33:00,
2013-01-14 01:38:00,27.8,23.9,30.13,WNW,303,8.0,17.0,85,0.00,,,0.00,Wunderground v.1.15,2013-01-14 06:38:00,
2013-01-14 01:43:00,27.7,23.8,30.13,WNW,302,7.0,13.0,85,0.00,,,0.00,Wunderground v.1.15,2013-01-14 06:43:00,
2013-01-14 01:48:00,27.6,24.0,30.13,WNW,302,4.0,15.0,86,0.00,,,0.00,Wunderground v.1.15,2013-01-14 06:48:00,
2013-01-14 01:53:00,27.5,23.6,30.13,WNW,303,5.0,14.0,85,0.00,,,0.00,Wunderground v.1.15,2013-01-14 06:53:00,
2013-01-14 01:58:00,27.4,23.2,30.14,WNW,302,20.0,22.0,84,0.00,,,0.00,Wunderground v.1.15,2013-01-14 06:58:00,
2013-01-14 02:03:00,27.3,23.1,30.14,WNW,302,4.0,19.0,84,0.00,,,0.00,Wunderground v.1.15,2013-01-14 07:03:00,
2013-01-14 02:08:00,27.3,23.1,30.15,WNW,302,9.0,20.0,84,0.00,,,0.00,Wunderground v.1.15,2013-01-14 07:08:00,
2013-01-14 02:13:00,27.3,23.1,30.15,WNW,302,4.0,17.0,84,0.00,,,0.00,Wunderground v.1.15,2013-01-14 07:13:00,
2013-01-14 02:18:00,27.2,23.3,30.15,WNW,302,3.0,17.0,85,0.00,,,0.00,Wunderground v.1.15,2013-01-14 07:18:00,
2013-01-14 02:23:00,27.2,23.3,30.15,WNW,303,3.0,17.0,85,0.00,,,0.00,Wunderground v.1.15,2013-01-14 07:23:00,
2013-01-14 02:28:00,27.2,23.6,30.16,WNW,302,5.0,17.0,86,0.00,,,0.00,Wunderground v.1.15,2013-01-14 07:28:00,
2013-01-14 02:33:00,27.1,23.5,30.17,WNW,302,16.0,16.0,86,0.00,,,0.00,Wunderground v.1.15,2013-01-14 07:33:00,
2013-01-14 02:38:00,27.0,23.1,30.17,WNW,302,9.0,16.0,85,0.00,,,0.00,Wunderground v.1.15,2013-01-14 07:38:00,
2013-01-14 02:43:00,26.6,22.1,30.18,WNW,302,12.0,21.0,83,0.00,,,0.00,Wunderground v.1.15,2013-01-14 07:43:00,
2013-01-14 02:48:00,26.4,22.2,30.18,WNW,302,10.0,21.0,84,0.00,,,0.00,Wunderground v.1.15,2013-01-14 07:48:00,
2013-01-14 02:53:00,26.3,22.4,30.18,WNW,303,7.0,20.0,85,0.00,,,0.00,Wunderground v.1.15,2013-01-14 07:53:00,
2013-01-14 02:58:00,26.3,22.4,30.19,WNW,302,10.0,20.0,85,0.00,,,0.00,Wunderground v.1.15,2013-01-14 07:58:00,
2013-01-14 03:03:00,26.3,22.7,30.19,WNW,302,10.0,10.0,86,0.00,,,0.00,Wunderground v.1.15,2013-01-14 08:03:00,
2013-01-14 03:08:00,26.2,22.3,30.19,WNW,303,14.0,17.0,85,0.00,,,0.00,Wunderground v.1.15,2013-01-14 08:08:00,
2013-01-14 03:13:00,26.2,22.3,30.20,WNW,302,9.0,16.0,85,0.00,,,0.00,Wunderground v.1.15,2013-01-14 08:13:00,
2013-01-14 03:18:00,26.3,22.7,30.20,WNW,302,9.0,16.0,86,0.00,,,0.00,Wunderground v.1.15,2013-01-14 08:18:00,
2013-01-14 03:23:00,26.3,22.4,30.21,WNW,302,5.0,13.0,85,0.00,,,0.00,Wunderground v.1.15,2013-01-14 08:23:00,
2013-01-14 03:28:00,26.3,22.7,30.21,WNW,302,14.0,16.0,86,0.00,,,0.00,Wunderground v.1.15,2013-01-14 08:28:00,
2013-01-14 03:33:00,26.3,22.4,30.22,WNW,302,11.0,17.0,85,0.00,,,0.00,Wunderground v.1.15,2013-01-14 08:33:00,
2013-01-14 03:38:00,26.3,22.4,30.22,WNW,302,9.0,17.0,85,0.00,,,0.00,Wunderground v.1.15,2013-01-14 08:38:00,
2013-01-14 03:43:00,26.3,22.4,30.22,WNW,303,8.0,18.0,85,0.00,,,0.00,Wunderground v.1.15,2013-01-14 08:43:00,
2013-01-14 03:48:00,26.3,22.1,30.23,WNW,303,7.0,18.0,84,0.00,,,0.00,Wunderground v.1.15,2013-01-14 08:48:00,
2013-01-14 03:53:00,26.2,22.0,30.23,WNW,302,6.0,19.0,84,0.00,,,0.00,Wunderground v.1.15,2013-01-14 08:53:00,
2013-01-14 03:58:00,26.1,21.9,30.23,WNW,302,6.0,19.0,84,0.00,,,0.00,Wunderground v.1.15,2013-01-14 08:58:00,
2013-01-14 04:03:00,26.1,21.9,30.23,WNW,302,5.0,18.0,84,0.00,,,0.00,Wunderground v.1.15,2013-01-14 09:03:00,
2013-01-14 04:08:00,26.1,21.9,30.23,WNW,302,6.0,18.0,84,0.00,,,0.00,Wunderground v.1.15,2013-01-14 09:08:00,
2013-01-14 04:13:00,26.0,22.1,30.23,WNW,302,10.0,15.0,85,0.00,,,0.00,Wunderground v.1.15,2013-01-14 09:13:00,
2013-01-14 04:18:00,25.9,22.0,30.23,WNW,302,7.0,16.0,85,0.00,,,0.00,Wunderground v.1.15,2013-01-14 09:18:00,
2013-01-14 04:23:00,25.9,22.3,30.23,WNW,302,5.0,14.0,86,0.00,,,0.00,Wunderground v.1.15,2013-01-14 09:23:00,
2013-01-14 04:28:00,26.0,22.7,30.24,WNW,303,6.0,14.0,87,0.00,,,0.00,Wunderground v.1.15,2013-01-14 09:28:00,
2013-01-14 04:33:00,25.9,22.3,30.23,WNW,303,4.0,11.0,86,0.00,,,0.00,Wunderground v.1.15,2013-01-14 09:33:00,
2013-01-14 04:38:00,25.9,22.6,30.24,WNW,302,5.0,13.0,87,0.00,,,0.00,Wunderground v.1.15,2013-01-14 09:38:00,
2013-01-14 04:43:00,25.8,22.5,30.24,WNW,302,6.0,11.0,87,0.00,,,0.00,Wunderground v.1.15,2013-01-14 09:43:00,
2013-01-14 04:48:00,25.7,22.1,30.24,WNW,302,12.0,14.0,86,0.00,,,0.00,Wunderground v.1.15,2013-01-14 09:48:00,
2013-01-14 04:53:00,25.4,21.5,30.24,WNW,302,5.0,18.0,85,0.00,,,0.00,Wunderground v.1.15,2013-01-14 09:53:00,
2013-01-14 04:58:00,25.3,21.4,30.25,WNW,302,7.0,18.0,85,0.00,,,0.00,Wunderground v.1.15,2013-01-14 09:58:00,
2013-01-14 05:03:00,25.0,20.6,30.25,WNW,302,2.0,17.0,83,0.00,,,0.00,Wunderground v.1.15,2013-01-14 10:03:00,
2013-01-14 05:08:00,24.9,20.8,30.26,WNW,303,8.0,17.0,84,0.00,,,0.00,Wunderground v.1.15,2013-01-14 10:08:00,
2013-01-14 05:13:00,24.8,20.4,30.26,WNW,302,16.0,17.0,83,0.00,,,0.00,Wunderground v.1.15,2013-01-14 10:13:00,
2013-01-14 05:18:00,24.6,20.5,30.26,WNW,302,9.0,21.0,84,0.00,,,0.00,Wunderground v.1.15,2013-01-14 10:18:00,
2013-01-14 05:23:00,24.7,20.6,30.26,WNW,302,5.0,14.0,84,0.00,,,0.00,Wunderground v.1.15,2013-01-14 10:23:00,
2013-01-14 05:28:00,24.7,20.6,30.26,WNW,302,10.0,21.0,84,0.00,,,0.00,Wunderground v.1.15,2013-01-14 10:28:00,
2013-01-14 05:33:00,24.7,20.6,30.27,WNW,303,7.0,10.0,84,0.00,,,0.00,Wunderground v.1.15,2013-01-14 10:33:00,
2013-01-14 05:38:00,24.7,20.6,30.27,WNW,302,12.0,17.0,84,0.00,,,0.00,Wunderground v.1.15,2013-01-14 10:38:00,
2013-01-14 05:43:00,24.7,20.8,30.27,WNW,302,8.0,14.0,85,0.00,,,0.00,Wunderground v.1.15,2013-01-14 10:43:00,
2013-01-14 05:48:00,24.7,20.8,30.28,WNW,303,11.0,18.0,85,0.00,,,0.00,Wunderground v.1.15,2013-01-14 10:48:00,
2013-01-14 05:53:00,24.7,20.8,30.28,WNW,302,6.0,20.0,85,0.00,,,0.00,Wunderground v.1.15,2013-01-14 10:53:00,
2013-01-14 05:58:00,24.6,20.5,30.29,WNW,302,14.0,22.0,84,0.00,,,0.00,Wunderground v.1.15,2013-01-14 10:58:00,
2013-01-14 06:03:00,24.2,19.8,30.29,WNW,303,16.0,16.0,83,0.00,,,0.00,Wunderground v.1.15,2013-01-14 11:03:00,
2013-01-14 06:08:00,24.1,19.7,30.29,WNW,302,7.0,19.0,83,0.00,,,0.00,Wunderground v.1.15,2013-01-14 11:08:00,
2013-01-14 06:13:00,24.0,19.6,30.30,WNW,302,6.0,13.0,83,0.00,,,0.00,Wunderground v.1.15,2013-01-14 11:13:00,
2013-01-14 06:18:00,24.0,19.6,30.30,WNW,303,7.0,13.0,83,0.00,,,0.00,Wunderground v.1.15,2013-01-14 11:18:00,
2013-01-14 06:23:00,24.1,19.7,30.30,WNW,302,4.0,12.0,83,0.00,,,0.00,Wunderground v.1.15,2013-01-14 11:23:00,
2013-01-14 06:28:00,24.1,19.7,30.31,WNW,303,9.0,13.0,83,0.00,,,0.00,Wunderground v.1.15,2013-01-14 11:28:00,
2013-01-14 06:33:00,24.1,20.0,30.31,WNW,302,7.0,10.0,84,0.00,,,0.00,Wunderground v.1.15,2013-01-14 11:33:00,
2013-01-14 06:38:00,24.1,20.0,30.32,WNW,302,4.0,14.0,84,0.00,,,0.00,Wunderground v.1.15,2013-01-14 11:38:00,
2013-01-14 06:43:00,24.1,20.0,30.32,WNW,302,7.0,11.0,84,0.00,,,0.00,Wunderground v.1.15,2013-01-14 11:43:00,
2013-01-14 06:48:00,24.2,20.1,30.33,WNW,303,11.0,15.0,84,0.00,,,0.00,Wunderground v.1.15,2013-01-14 11:48:00,
2013-01-14 06:53:00,24.1,20.0,30.33,WNW,302,9.0,17.0,84,0.00,,,0.00,Wunderground v.1.15,2013-01-14 11:53:00,
2013-01-14 06:58:00,23.9,19.5,30.33,WNW,302,8.0,17.0,83,0.00,,,0.00,Wunderground v.1.15,2013-01-14 11:58:00,
2013-01-14 07:03:00,23.8,19.4,30.33,WNW,302,16.0,20.0,83,0.00,,,0.00,Wunderground v.1.15,2013-01-14 12:03:00,
2013-01-14 07:08:00,23.6,19.5,30.33,WNW,302,11.0,20.0,84,0.00,,,0.00,Wunderground v.1.15,2013-01-14 12:08:00,
2013-01-14 07:13:00,23.6,19.5,30.33,WNW,302,12.0,14.0,84,0.00,,,0.00,Wunderground v.1.15,2013-01-14 12:13:00,
2013-01-14 07:18:00,23.6,19.5,30.33,WNW,303,14.0,14.0,84,0.00,,,0.00,Wunderground v.1.15,2013-01-14 12:18:00,
2013-01-14 07:23:00,23.5,19.1,30.33,WNW,302,10.0,18.0,83,0.00,,,0.00,Wunderground v.1.15,2013-01-14 12:23:00,
2013-01-14 07:28:00,23.4,19.3,30.34,WNW,302,11.0,18.0,84,0.00,,,0.00,Wunderground v.1.15,2013-01-14 12:28:00,
2013-01-14 07:33:00,23.3,19.2,30.34,WNW,302,5.0,16.0,84,0.00,,,0.00,Wunderground v.1.15,2013-01-14 12:33:00,
2013-01-14 07:38:00,23.3,19.2,30.35,WNW,302,9.0,16.0,84,0.00,,,0.00,Wunderground v.1.15,2013-01-14 12:38:00,
2013-01-14 07:43:00,23.3,19.2,30.36,WNW,302,3.0,11.0,84,0.00,,,0.00,Wunderground v.1.15,2013-01-14 12:43:00,
2013-01-14 07:48:00,23.1,19.0,30.36,WNW,302,3.0,19.0,84,0.00,,,0.00,Wunderground v.1.15,2013-01-14 12:48:00,
2013-01-14 07:53:00,22.9,18.8,30.36,WNW,302,7.0,16.0,84,0.00,,,0.00,Wunderground v.1.15,2013-01-14 12:53:00,
2013-01-14 07:58:00,22.7,18.6,30.36,WNW,302,7.0,17.0,84,0.00,,,0.00,Wunderground v.1.15,2013-01-14 12:58:00,
2013-01-14 08:03:00,22.6,18.5,30.37,WNW,302,7.0,13.0,84,0.00,,,0.00,Wunderground v.1.15,2013-01-14 13:03:00,
2013-01-14 08:08:00,22.7,18.6,30.37,WNW,302,9.0,15.0,84,0.00,,,0.00,Wunderground v.1.15,2013-01-14 13:08:00,
2013-01-14 08:13:00,22.7,18.6,30.37,WNW,302,8.0,13.0,84,0.00,,,0.00,Wunderground v.1.15,2013-01-14 13:13:00,
2013-01-14 08:18:00,22.5,18.1,30.38,WNW,303,10.0,16.0,83,0.00,,,0.00,Wunderground v.1.15,2013-01-14 13:18:00,
2013-01-14 08:23:00,22.5,17.8,30.38,WNW,302,5.0,19.0,82,0.00,,,0.00,Wunderground v.1.15,2013-01-14 13:23:00,
2013-01-14 08:28:00,22.5,18.1,30.38,WNW,302,7.0,19.0,83,0.00,,,0.00,Wunderground v.1.15,2013-01-14 13:28:00,
2013-01-14 08:33:00,22.4,17.7,30.39,WNW,302,4.0,13.0,82,0.00,,,0.00,Wunderground v.1.15,2013-01-14 13:33:00,
2013-01-14 08:38:00,22.4,17.7,30.39,WNW,302,9.0,15.0,82,0.00,,,0.00,Wunderground v.1.15,2013-01-14 13:38:00,
2013-01-14 08:43:00,22.3,17.6,30.40,WNW,302,4.0,14.0,82,0.00,,,0.00,Wunderground v.1.15,2013-01-14 13:43:00,
2013-01-14 08:48:00,22.4,17.7,30.40,WNW,302,8.0,14.0,82,0.00,,,0.00,Wunderground v.1.15,2013-01-14 13:48:00,
2013-01-14 08:53:00,22.4,17.7,30.40,WNW,302,10.0,20.0,82,0.00,,,0.00,Wunderground v.1.15,2013-01-14 13:53:00,
2013-01-14 08:58:00,22.1,16.6,30.41,WNW,302,9.0,20.0,79,0.00,,,0.00,Wunderground v.1.15,2013-01-14 13:58:00,
2013-01-14 09:03:00,22.0,16.5,30.41,WNW,302,10.0,11.0,79,0.00,,,0.00,Wunderground v.1.15,2013-01-14 14:03:00,
2013-01-14 09:08:00,22.0,16.5,30.41,WNW,302,5.0,14.0,79,0.00,,,0.00,Wunderground v.1.15,2013-01-14 14:08:00,
2013-01-14 09:13:00,22.0,16.5,30.41,WNW,303,7.0,11.0,79,0.00,,,0.00,Wunderground v.1.15,2013-01-14 14:13:00,
2013-01-14 09:18:00,21.9,16.7,30.41,WNW,302,3.0,17.0,80,0.00,,,0.00,Wunderground v.1.15,2013-01-14 14:18:00,
2013-01-14 09:23:00,22.0,16.8,30.41,WNW,302,12.0,13.0,80,0.00,,,0.00,Wunderground v.1.15,2013-01-14 14:23:00,
2013-01-14 09:28:00,22.0,17.1,30.41,WNW,302,7.0,13.0,81,0.00,,,0.00,Wunderground v.1.15,2013-01-14 14:28:00,
2013-01-14 09:33:00,22.1,17.2,30.42,WNW,303,3.0,12.0,81,0.00,,,0.00,Wunderground v.1.15,2013-01-14 14:33:00,
2013-01-14 09:38:00,22.1,16.6,30.42,WNW,302,9.0,12.0,79,0.00,,,0.00,Wunderground v.1.15,2013-01-14 14:38:00,
2013-01-14 09:43:00,22.0,16.5,30.43,WNW,302,6.0,12.0,79,0.00,,,0.00,Wunderground v.1.15,2013-01-14 14:43:00,
2013-01-14 09:48:00,22.1,16.9,30.43,WNW,302,0.0,12.0,80,0.00,,,0.00,Wunderground v.1.15,2013-01-14 14:48:00,
2013-01-14 09:53:00,22.3,16.8,30.43,WNW,302,6.0,9.0,79,0.00,,,0.00,Wunderground v.1.15,2013-01-14 14:53:00,
2013-01-14 09:58:00,22.3,16.8,30.43,WNW,302,6.0,10.0,79,0.00,,,0.00,Wunderground v.1.15,2013-01-14 14:58:00,
2013-01-14 10:03:00,22.4,16.9,30.43,WNW,302,8.0,15.0,79,0.00,,,0.00,Wunderground v.1.15,2013-01-14 15:03:00,
2013-01-14 10:08:00,22.5,17.0,30.44,WNW,302,10.0,15.0,79,0.00,,,0.00,Wunderground v.1.15,2013-01-14 15:08:00,
2013-01-14 10:13:00,22.6,16.5,30.44,WNW,302,8.0,11.0,77,0.00,,,0.00,Wunderground v.1.15,2013-01-14 15:13:00,
2013-01-14 10:18:00,22.6,16.5,30.44,WNW,302,2.0,14.0,77,0.00,,,0.00,Wunderground v.1.15,2013-01-14 15:18:00,
2013-01-14 10:23:00,22.4,16.0,30.44,WNW,302,7.0,13.0,76,0.00,,,0.00,Wunderground v.1.15,2013-01-14 15:23:00,
2013-01-14 10:28:00,22.2,15.5,30.44,WNW,303,8.0,15.0,75,0.00,,,0.00,Wunderground v.1.15,2013-01-14 15:28:00,
2013-01-14 10:33:00,22.2,15.8,30.45,WNW,302,4.0,11.0,76,0.00,,,0.00,Wunderground v.1.15,2013-01-14 15:33:00,
2013-01-14 10:38:00,22.5,16.1,30.45,WNW,302,6.0,12.0,76,0.00,,,0.00,Wunderground v.1.15,2013-01-14 15:38:00,
2013-01-14 10:43:00,22.7,16.6,30.45,WNW,302,5.0,10.0,77,0.00,,,0.00,Wunderground v.1.15,2013-01-14 15:43:00,
2013-01-14 10:48:00,22.7,16.3,30.45,WNW,302,3.0,10.0,76,0.00,,,0.00,Wunderground v.1.15,2013-01-14 15:48:00,
2013-01-14 10:53:00,22.9,16.8,30.45,WNW,302,9.0,9.0,77,0.00,,,0.00,Wunderground v.1.15,2013-01-14 15:53:00,
2013-01-14 10:57:00,22.9,16.8,30.45,WNW,302,5.0,12.0,77,0.00,,,0.00,Wunderground v.1.15,2013-01-14 15:57:00,
2013-01-14 11:02:00,22.7,16.9,30.45,WNW,302,5.0,8.0,78,0.00,,,0.00,Wunderground v.1.15,2013-01-14 16:02:00,
2013-01-14 11:07:00,22.6,17.1,30.45,WNW,302,4.0,9.0,79,0.00,,,0.00,Wunderground v.1.15,2013-01-14 16:07:00,
2013-01-14 11:12:00,22.7,16.9,30.45,WNW,303,9.0,9.0,78,0.00,,,0.00,Wunderground v.1.15,2013-01-14 16:12:00,
2013-01-14 11:17:00,22.5,16.7,30.45,WNW,302,4.0,10.0,78,0.00,,,0.00,Wunderground v.1.15,2013-01-14 16:17:00,
2013-01-14 11:22:00,22.6,16.8,30.46,WNW,302,5.0,8.0,78,0.00,,,0.00,Wunderground v.1.15,2013-01-14 16:22:00,
2013-01-14 11:27:00,22.7,16.9,30.45,WNW,302,3.0,8.0,78,0.00,,,0.00,Wunderground v.1.15,2013-01-14 16:27:00,
2013-01-14 11:32:00,22.6,16.5,30.45,WNW,302,4.0,8.0,77,0.00,,,0.00,Wunderground v.1.15,2013-01-14 16:32:00,
2013-01-14 11:37:00,22.6,16.5,30.45,WNW,302,5.0,8.0,77,0.00,,,0.00,Wunderground v.1.15,2013-01-14 16:37:00,
2013-01-14 11:42:00,22.6,16.8,30.45,WNW,302,5.0,7.0,78,0.00,,,0.00,Wunderground v.1.15,2013-01-14 16:42:00,
2013-01-14 11:47:00,22.9,17.1,30.44,WNW,302,3.0,7.0,78,0.00,,,0.00,Wunderground v.1.15,2013-01-14 16:47:00,
2013-01-14 11:52:00,22.9,16.8,30.44,WNW,302,2.0,7.0,77,0.00,,,0.00,Wunderground v.1.15,2013-01-14 16:52:00,
2013-01-14 11:57:00,23.0,17.2,30.43,WNW,303,2.0,8.0,78,0.00,,,0.00,Wunderground v.1.15,2013-01-14 16:57:00,
2013-01-14 12:02:00,22.9,17.1,30.43,WNW,302,6.0,6.0,78,0.00,,,0.00,Wunderground v.1.15,2013-01-14 17:02:00,
2013-01-14 12:07:00,23.0,17.2,30.43,WNW,303,2.0,6.0,78,0.00,,,0.00,Wunderground v.1.15,2013-01-14 17:07:00,
2013-01-14 12:12:00,22.9,16.5,30.43,WNW,302,3.0,7.0,76,0.00,,,0.00,Wunderground v.1.15,2013-01-14 17:12:00,
2013-01-14 12:17:00,22.9,16.8,30.43,WNW,302,3.0,7.0,77,0.00,,,0.00,Wunderground v.1.15,2013-01-14 17:17:00,
2013-01-14 12:22:00,22.9,16.8,30.42,WNW,303,2.0,8.0,77,0.00,,,0.00,Wunderground v.1.15,2013-01-14 17:22:00,
2013-01-14 12:27:00,23.0,16.9,30.41,WNW,302,8.0,8.0,77,0.00,,,0.00,Wunderground v.1.15,2013-01-14 17:27:00,
2013-01-14 12:32:00,22.9,16.8,30.41,WNW,302,5.0,6.0,77,0.00,,,0.00,Wunderground v.1.15,2013-01-14 17:32:00,
2013-01-14 12:37:00,23.3,17.5,30.40,WNW,302,5.0,6.0,78,0.00,,,0.00,Wunderground v.1.15,2013-01-14 17:37:00,
2013-01-14 12:42:00,23.5,17.3,30.40,WNW,303,5.0,8.0,77,0.00,,,0.00,Wunderground v.1.15,2013-01-14 17:42:00,
2013-01-14 12:47:00,23.2,17.4,30.41,WNW,303,5.0,8.0,78,0.00,,,0.00,Wunderground v.1.15,2013-01-14 17:47:00,
2013-01-14 12:52:00,23.1,17.0,30.42,WNW,302,1.0,7.0,77,0.00,,,0.00,Wunderground v.1.15,2013-01-14 17:52:00,
2013-01-14 12:57:00,23.6,17.4,30.42,WNW,302,4.0,8.0,77,0.00,,,0.00,Wunderground v.1.15,2013-01-14 17:57:00,
2013-01-14 13:02:00,24.0,17.8,30.42,WNW,302,2.0,5.0,77,0.00,,,0.00,Wunderground v.1.15,2013-01-14 18:02:00,
2013-01-14 13:07:00,24.2,17.4,30.42,WNW,303,4.0,7.0,75,0.00,,,0.00,Wunderground v.1.15,2013-01-14 18:07:00,
2013-01-14 13:12:00,24.4,17.6,30.42,WNW,303,5.0,6.0,75,0.00,,,0.00,Wunderground v.1.15,2013-01-14 18:12:00,
2013-01-14 13:17:00,23.9,17.1,30.42,WNW,302,3.0,8.0,75,0.00,,,0.00,Wunderground v.1.15,2013-01-14 18:17:00,
2013-01-14 13:22:00,23.6,16.8,30.41,WNW,303,5.0,6.0,75,0.00,,,0.00,Wunderground v.1.15,2013-01-14 18:22:00,
2013-01-14 13:27:00,23.6,17.1,30.41,WNW,303,4.0,9.0,76,0.00,,,0.00,Wunderground v.1.15,2013-01-14 18:27:00,
2013-01-14 13:32:00,23.9,17.4,30.41,WNW,303,3.0,9.0,76,0.00,,,0.00,Wunderground v.1.15,2013-01-14 18:32:00,
2013-01-14 13:37:00,23.6,16.5,30.41,WNW,303,3.0,9.0,74,0.00,,,0.00,Wunderground v.1.15,2013-01-14 18:37:00,
2013-01-14 13:42:00,23.9,17.1,30.41,WNW,303,2.0,6.0,75,0.00,,,0.00,Wunderground v.1.15,2013-01-14 18:42:00,
2013-01-14 13:47:00,24.0,17.2,30.42,WNW,303,5.0,9.0,75,0.00,,,0.00,Wunderground v.1.15,2013-01-14 18:47:00,
2013-01-14 13:52:00,23.8,16.4,30.42,WNW,303,4.0,9.0,73,0.00,,,0.00,Wunderground v.1.15,2013-01-14 18:52:00,
2013-01-14 13:57:00,23.9,16.8,30.42,WNW,303,3.0,9.0,74,0.00,,,0.00,Wunderground v.1.15,2013-01-14 18:57:00,
2013-01-14 14:02:00,24.3,17.5,30.42,WNW,303,3.0,4.0,75,0.00,,,0.00,Wunderground v.1.15,2013-01-14 19:02:00,
2013-01-14 14:07:00,24.8,18.0,30.43,WNW,303,2.0,7.0,75,0.00,,,0.00,Wunderground v.1.15,2013-01-14 19:07:00,
2013-01-14 14:12:00,24.9,17.5,30.43,WNW,303,1.0,6.0,73,0.00,,,0.00,Wunderground v.1.15,2013-01-14 19:12:00,
2013-01-14 14:17:00,25.0,17.2,30.43,WNW,303,4.0,9.0,72,0.00,,,0.00,Wunderground v.1.15,2013-01-14 19:17:00,
2013-01-14 14:22:00,25.0,17.2,30.44,WNW,303,3.0,3.0,72,0.00,,,0.00,Wunderground v.1.15,2013-01-14 19:22:00,
2013-01-14 14:27:00,24.9,17.1,30.44,WNW,302,5.0,8.0,72,0.00,,,0.00,Wunderground v.1.15,2013-01-14 19:27:00,
2013-01-14 14:32:00,24.9,16.8,30.44,WNW,302,2.0,7.0,71,0.00,,,0.00,Wunderground v.1.15,2013-01-14 19:32:00,
2013-01-14 14:37:00,24.9,17.1,30.44,WNW,302,1.0,7.0,72,0.00,,,0.00,Wunderground v.1.15,2013-01-14 19:37:00,
2013-01-14 14:42:00,25.3,17.2,30.45,WNW,302,5.0,7.0,71,0.00,,,0.00,Wunderground v.1.15,2013-01-14 19:42:00,
2013-01-14 14:47:00,25.3,17.2,30.44,WNW,303,2.0,7.0,71,0.00,,,0.00,Wunderground v.1.15,2013-01-14 19:47:00,
2013-01-14 14:52:00,25.4,17.0,30.44,WNW,302,1.0,6.0,70,0.00,,,0.00,Wunderground v.1.15,2013-01-14 19:52:00,
2013-01-14 14:57:00,25.3,16.9,30.45,WNW,302,5.0,6.0,70,0.00,,,0.00,Wunderground v.1.15,2013-01-14 19:57:00,
2013-01-14 15:02:00,25.4,17.6,30.45,WNW,303,5.0,6.0,72,0.00,,,0.00,Wunderground v.1.15,2013-01-14 20:02:00,
2013-01-14 15:07:00,25.7,17.6,30.45,WNW,303,4.0,7.0,71,0.00,,,0.00,Wunderground v.1.15,2013-01-14 20:07:00,
2013-01-14 15:12:00,25.4,17.0,30.45,WNW,302,6.0,8.0,70,0.00,,,0.00,Wunderground v.1.15,2013-01-14 20:12:00,
2013-01-14 15:17:00,24.9,16.8,30.45,WNW,302,4.0,8.0,71,0.00,,,0.00,Wunderground v.1.15,2013-01-14 20:17:00,
2013-01-14 15:22:00,24.8,17.1,30.45,WNW,302,5.0,6.0,72,0.00,,,0.00,Wunderground v.1.15,2013-01-14 20:22:00,
2013-01-14 15:27:00,24.7,17.0,30.45,WNW,302,4.0,6.0,72,0.00,,,0.00,Wunderground v.1.15,2013-01-14 20:27:00,
2013-01-14 15:32:00,24.7,16.6,30.45,WNW,302,0.0,3.0,71,0.00,,,0.00,Wunderground v.1.15,2013-01-14 20:32:00,
2013-01-14 15:37:00,24.7,17.0,30.46,WNW,302,1.0,4.0,72,0.00,,,0.00,Wunderground v.1.15,2013-01-14 20:37:00,
2013-01-14 15:42:00,24.8,17.1,30.47,WNW,302,1.0,3.0,72,0.00,,,0.00,Wunderground v.1.15,2013-01-14 20:42:00,
2013-01-14 15:47:00,25.0,16.9,30.47,WNW,302,2.0,6.0,71,0.00,,,0.00,Wunderground v.1.15,2013-01-14 20:47:00,
2013-01-14 15:52:00,24.9,17.1,30.46,WNW,302,2.0,5.0,72,0.00,,,0.00,Wunderground v.1.15,2013-01-14 20:52:00,
2013-01-14 15:57:00,24.8,17.1,30.46,WNW,302,1.0,5.0,72,0.00,,,0.00,Wunderground v.1.15,2013-01-14 20:57:00,
2013-01-14 16:02:00,24.8,17.4,30.46,WNW,302,1.0,6.0,73,0.00,,,0.00,Wunderground v.1.15,2013-01-14 21:02:00,
2013-01-14 16:07:00,24.8,17.7,30.46,WNW,302,2.0,7.0,74,0.00,,,0.00,Wunderground v.1.15,2013-01-14 21:07:00,
2013-01-14 16:12:00,24.8,17.4,30.47,WNW,302,4.0,8.0,73,0.00,,,0.00,Wunderground v.1.15,2013-01-14 21:12:00,
2013-01-14 16:17:00,24.6,17.2,30.47,WNW,302,4.0,8.0,73,0.00,,,0.00,Wunderground v.1.15,2013-01-14 21:17:00,
2013-01-14 16:22:00,24.6,16.9,30.48,WNW,302,4.0,6.0,72,0.00,,,0.00,Wunderground v.1.15,2013-01-14 21:22:00,
2013-01-14 16:27:00,24.5,17.1,30.49,WNW,302,4.0,6.0,73,0.00,,,0.00,Wunderground v.1.15,2013-01-14 21:27:00,
2013-01-14 16:32:00,24.6,17.2,30.49,WNW,302,4.0,7.0,73,0.00,,,0.00,Wunderground v.1.15,2013-01-14 21:32:00,
2013-01-14 16:37:00,24.5,17.1,30.48,WNW,302,3.0,7.0,73,0.00,,,0.00,Wunderground v.1.15,2013-01-14 21:37:00,
2013-01-14 16:42:00,24.4,17.0,30.48,WNW,302,4.0,4.0,73,0.00,,,0.00,Wunderground v.1.15,2013-01-14 21:42:00,
2013-01-14 16:47:00,24.3,16.9,30.48,WNW,302,2.0,6.0,73,0.00,,,0.00,Wunderground v.1.15,2013-01-14 21:47:00,
2013-01-14 16:52:00,24.3,17.2,30.48,WNW,302,0.0,4.0,74,0.00,,,0.00,Wunderground v.1.15,2013-01-14 21:52:00,
2013-01-14 16:57:00,24.3,17.2,30.49,WNW,302,2.0,5.0,74,0.00,,,0.00,Wunderground v.1.15,2013-01-14 21:57:00,
2013-01-14 17:02:00,24.2,16.8,30.49,WNW,302,0.0,6.0,73,0.00,,,0.00,Wunderground v.1.15,2013-01-14 22:02:00,
2013-01-14 17:07:00,24.2,17.1,30.50,WNW,302,5.0,8.0,74,0.00,,,0.00,Wunderground v.1.15,2013-01-14 22:07:00,
2013-01-14 17:12:00,24.2,17.1,30.51,WNW,302,5.0,6.0,74,0.00,,,0.00,Wunderground v.1.15,2013-01-14 22:12:00,
2013-01-14 17:17:00,24.2,17.1,30.50,WNW,302,3.0,6.0,74,0.00,,,0.00,Wunderground v.1.15,2013-01-14 22:17:00,
2013-01-14 17:22:00,24.3,17.5,30.51,WNW,302,2.0,4.0,75,0.00,,,0.00,Wunderground v.1.15,2013-01-14 22:22:00,
2013-01-14 17:27:00,24.2,17.1,30.50,WNW,302,3.0,6.0,74,0.00,,,0.00,Wunderground v.1.15,2013-01-14 22:27:00,
2013-01-14 17:32:00,24.1,17.3,30.49,WNW,302,2.0,6.0,75,0.00,,,0.00,Wunderground v.1.15,2013-01-14 22:32:00,
2013-01-14 17:37:00,24.1,17.3,30.49,WNW,302,1.0,6.0,75,0.00,,,0.00,Wunderground v.1.15,2013-01-14 22:37:00,
2013-01-14 17:42:00,24.1,17.3,30.49,WNW,302,5.0,5.0,75,0.00,,,0.00,Wunderground v.1.15,2013-01-14 22:42:00,
2013-01-14 17:47:00,24.0,17.2,30.50,WNW,302,6.0,6.0,75,0.00,,,0.00,Wunderground v.1.15,2013-01-14 22:47:00,
2013-01-14 17:52:00,23.9,17.1,30.50,WNW,302,2.0,6.0,75,0.00,,,0.00,Wunderground v.1.15,2013-01-14 22:52:00,
2013-01-14 17:57:00,23.9,17.4,30.50,WNW,302,4.0,7.0,76,0.00,,,0.00,Wunderground v.1.15,2013-01-14 22:57:00,
2013-01-14 18:02:00,23.8,17.3,30.50,WNW,302,3.0,8.0,76,0.00,,,0.00,Wunderground v.1.15,2013-01-14 23:02:00,
2013-01-14 18:07:00,23.8,17.3,30.50,WNW,302,3.0,8.0,76,0.00,,,0.00,Wunderground v.1.15,2013-01-14 23:07:00,
2013-01-14 18:12:00,23.8,17.6,30.50,WNW,302,3.0,4.0,77,0.00,,,0.00,Wunderground v.1.15,2013-01-14 23:12:00,
2013-01-14 18:17:00,23.9,17.7,30.50,WNW,302,0.0,4.0,77,0.00,,,0.00,Wunderground v.1.15,2013-01-14 23:17:00,
2013-01-14 18:22:00,23.8,17.6,30.50,WNW,302,2.0,6.0,77,0.00,,,0.00,Wunderground v.1.15,2013-01-14 23:22:00,
2013-01-14 18:27:00,23.7,17.5,30.49,WNW,302,4.0,6.0,77,0.00,,,0.00,Wunderground v.1.15,2013-01-14 23:27:00,
2013-01-14 18:32:00,23.7,17.5,30.49,WNW,302,2.0,3.0,77,0.00,,,0.00,Wunderground v.1.15,2013-01-14 23:32:00,
2013-01-14 18:37:00,23.6,17.4,30.49,WNW,302,1.0,5.0,77,0.00,,,0.00,Wunderground v.1.15,2013-01-14 23:37:00,
2013-01-14 18:42:00,23.5,17.3,30.49,WNW,302,1.0,5.0,77,0.00,,,0.00,Wunderground v.1.15,2013-01-14 23:42:00,
2013-01-14 18:47:00,23.5,17.6,30.49,WNW,302,3.0,5.0,78,0.00,,,0.00,Wunderground v.1.15,2013-01-14 23:47:00,
2013-01-14 18:52:00,23.4,17.6,30.50,WNW,302,0.0,5.0,78,0.00,,,0.00,Wunderground v.1.15,2013-01-14 23:52:00,
2013-01-14 18:57:00,23.3,17.5,30.49,WNW,302,2.0,7.0,78,0.00,,,0.00,Wunderground v.1.15,2013-01-14 23:57:00,
2013-01-14 19:02:00,23.3,17.5,30.50,WNW,302,3.0,5.0,78,0.00,,,0.00,Wunderground v.1.15,2013-01-15 00:02:00,
2013-01-14 19:06:00,23.3,17.5,30.50,WNW,302,3.0,5.0,78,0.00,,,0.00,Wunderground v.1.15,2013-01-15 00:06:00,
2013-01-14 19:11:00,23.1,17.3,30.49,WNW,302,3.0,5.0,78,0.00,,,0.00,Wunderground v.1.15,2013-01-15 00:11:00,
2013-01-14 19:16:00,23.1,17.3,30.49,WNW,302,2.0,6.0,78,0.00,,,0.00,Wunderground v.1.15,2013-01-15 00:16:00,
2013-01-14 19:21:00,23.0,17.5,30.49,WNW,302,5.0,5.0,79,0.00,,,0.00,Wunderground v.1.15,2013-01-15 00:21:00,
2013-01-14 19:26:00,23.0,17.5,30.49,WNW,302,2.0,5.0,79,0.00,,,0.00,Wunderground v.1.15,2013-01-15 00:26:00,
2013-01-14 19:31:00,22.9,17.4,30.49,WNW,302,2.0,5.0,79,0.00,,,0.00,Wunderground v.1.15,2013-01-15 00:31:00,
2013-01-14 19:36:00,22.8,17.3,30.49,WNW,302,1.0,6.0,79,0.00,,,0.00,Wunderground v.1.15,2013-01-15 00:36:00,
2013-01-14 19:41:00,22.7,17.5,30.49,WNW,302,2.0,2.0,80,0.00,,,0.00,Wunderground v.1.15,2013-01-15 00:41:00,
2013-01-14 19:46:00,22.6,17.4,30.48,WNW,302,3.0,5.0,80,0.00,,,0.00,Wunderground v.1.15,2013-01-15 00:46:00,
2013-01-14 19:51:00,22.6,17.4,30.48,WNW,302,4.0,4.0,80,0.00,,,0.00,Wunderground v.1.15,2013-01-15 00:51:00,
2013-01-14 19:56:00,22.5,17.0,30.48,WNW,302,2.0,5.0,79,0.00,,,0.00,Wunderground v.1.15,2013-01-15 00:56:00,
2013-01-14 20:01:00,22.5,17.3,30.48,WNW,302,2.0,4.0,80,0.00,,,0.00,Wunderground v.1.15,2013-01-15 01:01:00,
2013-01-14 20:06:00,22.5,17.3,30.48,WNW,302,0.0,4.0,80,0.00,,,0.00,Wunderground v.1.15,2013-01-15 01:06:00,
2013-01-14 20:11:00,22.4,17.5,30.48,WNW,302,1.0,3.0,81,0.00,,,0.00,Wunderground v.1.15,2013-01-15 01:11:00,
2013-01-14 20:16:00,22.3,17.4,30.48,WNW,302,4.0,5.0,81,0.00,,,0.00,Wunderground v.1.15,2013-01-15 01:16:00,
2013-01-14 20:21:00,22.3,17.4,30.47,WNW,302,3.0,3.0,81,0.00,,,0.00,Wunderground v.1.15,2013-01-15 01:21:00,
2013-01-14 20:26:00,22.2,17.5,30.47,WNW,302,3.0,4.0,82,0.00,,,0.00,Wunderground v.1.15,2013-01-15 01:26:00,
2013-01-14 20:31:00,22.2,17.5,30.47,WNW,302,1.0,5.0,82,0.00,,,0.00,Wunderground v.1.15,2013-01-15 01:31:00,
2013-01-14 20:36:00,22.2,17.3,30.47,WNW,302,3.0,6.0,81,0.00,,,0.00,Wunderground v.1.15,2013-01-15 01:36:00,
2013-01-14 20:41:00,22.2,17.3,30.47,WNW,302,4.0,5.0,81,0.00,,,0.00,Wunderground v.1.15,2013-01-15 01:41:00,
2013-01-14 20:46:00,22.2,17.3,30.47,WNW,302,3.0,6.0,81,0.00,,,0.00,Wunderground v.1.15,2013-01-15 01:46:00,
2013-01-14 20:51:00,22.2,17.3,30.47,WNW,302,5.0,6.0,81,0.00,,,0.00,Wunderground v.1.15,2013-01-15 01:51:00,
2013-01-14 20:56:00,22.1,17.2,30.47,WNW,302,0.0,6.0,81,0.00,,,0.00,Wunderground v.1.15,2013-01-15 01:56:00,
2013-01-14 21:01:00,22.1,17.2,30.47,WNW,302,1.0,4.0,81,0.00,,,0.00,Wunderground v.1.15,2013-01-15 02:01:00,
2013-01-14 21:06:00,22.0,17.3,30.47,WNW,302,1.0,5.0,82,0.00,,,0.00,Wunderground v.1.15,2013-01-15 02:06:00,
2013-01-14 21:11:00,22.0,17.3,30.47,WNW,302,3.0,3.0,82,0.00,,,0.00,Wunderground v.1.15,2013-01-15 02:11:00,
2013-01-14 21:16:00,22.0,17.3,30.47,WNW,302,3.0,5.0,82,0.00,,,0.00,Wunderground v.1.15,2013-01-15 02:16:00,
2013-01-14 21:21:00,21.9,17.2,30.48,WNW,302,1.0,6.0,82,0.00,,,0.00,Wunderground v.1.15,2013-01-15 02:21:00,
2013-01-14 21:26:00,21.8,17.2,30.48,WNW,302,4.0,6.0,82,0.00,,,0.00,Wunderground v.1.15,2013-01-15 02:26:00,
2013-01-14 21:31:00,21.8,17.2,30.48,WNW,302,2.0,5.0,82,0.00,,,0.00,Wunderground v.1.15,2013-01-15 02:31:00,
2013-01-14 21:36:00,21.8,17.2,30.48,WNW,302,1.0,5.0,82,0.00,,,0.00,Wunderground v.1.15,2013-01-15 02:36:00,
2013-01-14 21:41:00,21.7,17.1,30.48,WNW,302,3.0,4.0,82,0.00,,,0.00,Wunderground v.1.15,2013-01-15 02:41:00,
2013-01-14 21:46:00,21.6,17.2,30.48,WNW,302,2.0,4.0,83,0.00,,,0.00,Wunderground v.1.15,2013-01-15 02:46:00,
2013-01-14 21:51:00,21.5,17.1,30.48,WNW,302,3.0,4.0,83,0.00,,,0.00,Wunderground v.1.15,2013-01-15 02:51:00,
2013-01-14 21:56:00,21.5,17.1,30.48,WNW,302,3.0,4.0,83,0.00,,,0.00,Wunderground v.1.15,2013-01-15 02:56:00,
2013-01-14 22:01:00,21.5,17.1,30.47,WNW,302,1.0,4.0,83,0.00,,,0.00,Wunderground v.1.15,2013-01-15 03:01:00,
2013-01-14 22:06:00,21.4,17.0,30.47,WNW,302,0.0,4.0,83,0.00,,,0.00,Wunderground v.1.15,2013-01-15 03:06:00,
2013-01-14 22:11:00,21.3,17.2,30.47,WNW,302,3.0,4.0,84,0.00,,,0.00,Wunderground v.1.15,2013-01-15 03:11:00,
2013-01-14 22:16:00,21.2,17.1,30.47,WNW,302,0.0,4.0,84,0.00,,,0.00,Wunderground v.1.15,2013-01-15 03:16:00,
2013-01-14 22:21:00,21.2,17.1,30.47,WNW,302,1.0,3.0,84,0.00,,,0.00,Wunderground v.1.15,2013-01-15 03:21:00,
2013-01-14 22:26:00,21.1,17.0,30.46,WNW,302,0.0,3.0,84,0.00,,,0.00,Wunderground v.1.15,2013-01-15 03:26:00,
2013-01-14 22:31:00,21.0,17.2,30.46,WNW,302,0.0,2.0,85,0.00,,,0.00,Wunderground v.1.15,2013-01-15 03:31:00,
2013-01-14 22:36:00,20.8,17.0,30.46,WNW,302,1.0,3.0,85,0.00,,,0.00,Wunderground v.1.15,2013-01-15 03:36:00,
2013-01-14 22:41:00,20.8,17.0,30.45,WNW,302,2.0,4.0,85,0.00,,,0.00,Wunderground v.1.15,2013-01-15 03:41:00,
2013-01-14 22:46:00,20.8,17.3,30.45,WNW,302,3.0,5.0,86,0.00,,,0.00,Wunderground v.1.15,2013-01-15 03:46:00,
2013-01-14 22:51:00,20.8,17.3,30.45,WNW,302,4.0,4.0,86,0.00,,,0.00,Wunderground v.1.15,2013-01-15 03:51:00,
2013-01-14 22:56:00,20.8,17.3,30.45,WNW,302,1.0,5.0,86,0.00,,,0.00,Wunderground v.1.15,2013-01-15 03:56:00,
2013-01-14 23:01:00,20.8,17.3,30.45,WNW,302,2.0,4.0,86,0.00,,,0.00,Wunderground v.1.15,2013-01-15 04:01:00,
2013-01-14 23:06:00,20.7,16.9,30.45,WNW,302,1.0,4.0,85,0.00,,,0.00,Wunderground v.1.15,2013-01-15 04:06:00,
2013-01-14 23:11:00,20.7,17.2,30.45,WNW,302,3.0,5.0,86,0.00,,,0.00,Wunderground v.1.15,2013-01-15 04:11:00,
2013-01-14 23:16:00,20.7,17.2,30.45,WNW,302,3.0,5.0,86,0.00,,,0.00,Wunderground v.1.15,2013-01-15 04:16:00,
2013-01-14 23:21:00,20.7,17.2,30.46,WNW,302,1.0,2.0,86,0.00,,,0.00,Wunderground v.1.15,2013-01-15 04:21:00,
2013-01-14 23:26:00,20.7,17.2,30.46,WNW,302,0.0,4.0,86,0.00,,,0.00,Wunderground v.1.15,2013-01-15 04:26:00,
2013-01-14 23:31:00,20.6,17.1,30.46,WNW,302,1.0,3.0,86,0.00,,,0.00,Wunderground v.1.15,2013-01-15 04:31:00,
2013-01-14 23:36:00,20.5,17.0,30.46,WNW,302,2.0,4.0,86,0.00,,,0.00,Wunderground v.1.15,2013-01-15 04:36:00,
2013-01-14 23:41:00,20.5,17.0,30.47,WNW,302,2.0,3.0,86,0.00,,,0.00,Wunderground v.1.15,2013-01-15 04:41:00,
2013-01-14 23:46:00,20.4,16.9,30.47,WNW,302,0.0,4.0,86,0.00,,,0.00,Wunderground v.1.15,2013-01-15 04:46:00,
2013-01-14 23:51:00,20.3,16.8,30.47,WNW,302,0.0,2.0,86,0.00,,,0.00,Wunderground v.1.15,2013-01-15 04:51:00,
2013-01-14 23:56:00,20.2,16.7,30.47,WNW,302,0.0,2.0,86,0.00,,,0.00,Wunderground v.1.15,2013-01-15 04:56:00,